createdAt,value
2019-05-20T00:01:01.240Z,24.43
2019-05-20T00:03:06.741Z,29.53
2019-05-20T00:05:11.928Z,25.40
2019-05-20T00:07:16.456Z,26.60
2019-05-20T00:09:21.287Z,37.87
2019-05-20T00:11:25.900Z,32.90
2019-05-20T00:13:30.761Z,29.40
2019-05-20T00:15:35.265Z,35.70
2019-05-20T00:17:39.667Z,34.67
2019-05-20T00:19:44.167Z,37.17
2019-05-20T00:21:48.651Z,35.90
2019-05-20T00:23:53.051Z,41.17
2019-05-20T00:25:57.419Z,38.93
2019-05-20T00:28:01.804Z,40.23
2019-05-20T00:30:08.453Z,52.90
2019-05-20T00:32:12.854Z,44.27
2019-05-20T00:34:17.525Z,38.37
2019-05-20T00:36:21.984Z,41.30
2019-05-20T00:38:26.814Z,39.57
2019-05-20T00:40:31.237Z,46.93
2019-05-20T00:42:36.028Z,36.87
2019-05-20T00:44:40.841Z,36.80
2019-05-20T00:46:47.662Z,39.67
2019-05-20T00:48:52.548Z,52.47
2019-05-20T00:50:57.433Z,39.03
2019-05-20T00:53:02.277Z,37.77
2019-05-20T00:55:08.158Z,46.57
2019-05-20T00:57:13.188Z,42.30
2019-05-20T00:59:17.582Z,44.00
2019-05-20T01:01:22.091Z,41.10
2019-05-20T01:03:27.502Z,40.73
2019-05-20T01:05:31.990Z,37.83
2019-05-20T01:07:36.450Z,36.47
2019-05-20T01:09:40.866Z,41.27
2019-05-20T01:11:46.028Z,37.13
2019-05-20T01:13:51.543Z,42.23
2019-05-20T01:15:55.962Z,44.47
2019-05-20T01:18:00.307Z,45.37
2019-05-20T01:20:05.222Z,47.27
2019-05-20T01:22:09.932Z,46.57
2019-05-20T01:24:14.322Z,47.23
2019-05-20T01:26:18.790Z,53.80
2019-05-20T01:28:23.228Z,48.03
2019-05-20T01:30:27.630Z,54.57
2019-05-20T01:32:34.010Z,52.57
2019-05-20T01:34:38.486Z,59.50
2019-05-20T01:36:43.095Z,47.87
2019-05-20T01:38:47.518Z,63.57
2019-05-20T01:40:51.969Z,53.07
2019-05-20T01:42:56.404Z,52.60
2019-05-20T01:45:00.945Z,49.90
2019-05-20T01:47:05.456Z,58.37
2019-05-20T01:49:09.811Z,58.40
2019-05-20T01:51:14.281Z,55.47
2019-05-20T01:53:19.000Z,55.50
2019-05-20T01:55:24.106Z,55.63
2019-05-20T01:57:28.628Z,60.90
2019-05-20T01:59:33.430Z,71.30
2019-05-20T02:01:37.871Z,61.37
2019-05-20T02:03:42.315Z,53.53
2019-05-20T02:05:46.668Z,60.17
2019-05-20T02:07:51.141Z,56.57
2019-05-20T02:09:56.218Z,57.77
2019-05-20T02:12:00.651Z,65.77
2019-05-20T02:14:08.596Z,63.97
2019-05-20T02:16:13.052Z,61.13
2019-05-20T02:18:17.594Z,62.73
2019-05-20T02:20:22.817Z,69.10
2019-05-20T02:22:27.448Z,56.87
2019-05-20T02:24:32.092Z,56.27
2019-05-20T02:26:36.481Z,61.70
2019-05-20T02:28:40.919Z,59.40
2019-05-20T02:30:45.425Z,57.80
2019-05-20T02:32:49.832Z,53.80
2019-05-20T02:34:57.542Z,52.87
2019-05-20T02:37:01.959Z,49.57
2019-05-20T02:39:07.611Z,57.20
2019-05-20T02:41:12.446Z,58.00
2019-05-20T02:43:17.078Z,48.90
2019-05-20T02:45:21.711Z,60.33
2019-05-20T02:47:26.216Z,49.47
2019-05-20T02:49:30.623Z,44.43
2019-05-20T02:51:35.017Z,42.13
2019-05-20T02:53:39.408Z,47.80
2019-05-20T02:55:45.386Z,57.60
2019-05-20T02:57:49.726Z,45.33
2019-05-20T02:59:54.492Z,43.50
2019-05-20T03:01:59.060Z,46.97
2019-05-20T03:04:11.391Z,44.57
2019-05-20T03:06:09.614Z,47.53
2019-05-20T03:08:13.944Z,44.63
2019-05-20T03:10:18.692Z,40.20
2019-05-20T03:12:23.216Z,41.87
2019-05-20T03:14:28.201Z,51.30
2019-05-20T03:16:32.711Z,45.43
2019-05-20T03:18:37.535Z,52.30
2019-05-20T03:20:41.871Z,48.57
2019-05-20T03:22:46.273Z,43.87
2019-05-20T03:24:51.622Z,47.23
2019-05-20T03:26:56.067Z,45.03
2019-05-20T03:29:01.179Z,42.00
2019-05-20T03:31:05.611Z,50.93
2019-05-20T03:33:09.998Z,42.23
2019-05-20T03:35:14.569Z,46.70
2019-05-20T03:37:20.309Z,38.70
2019-05-20T03:39:24.721Z,32.50
2019-05-20T03:41:29.091Z,36.93
2019-05-20T03:43:33.853Z,44.67
2019-05-20T03:45:38.664Z,41.50
2019-05-20T03:47:43.052Z,38.30
2019-05-20T03:49:47.714Z,33.07
2019-05-20T03:51:52.706Z,39.37
2019-05-20T03:53:57.515Z,35.70
2019-05-20T03:56:02.033Z,36.43
2019-05-20T03:58:06.460Z,36.80
2019-05-20T04:00:12.017Z,39.13
2019-05-20T04:02:16.488Z,38.93
2019-05-20T04:04:25.065Z,43.40
2019-05-20T04:06:30.348Z,38.00
2019-05-20T04:08:34.862Z,37.80
2019-05-20T04:10:39.366Z,43.40
2019-05-20T04:12:43.768Z,45.50
2019-05-20T04:14:48.389Z,36.07
2019-05-20T04:16:55.321Z,40.10
2019-05-20T04:18:59.893Z,40.77
2019-05-20T04:21:04.601Z,38.87
2019-05-20T04:23:09.128Z,42.93
2019-05-20T04:25:13.668Z,37.13
2019-05-20T04:27:18.387Z,33.50
2019-05-20T04:29:23.742Z,38.63
2019-05-20T04:31:29.930Z,34.30
2019-05-20T04:33:36.566Z,35.40
2019-05-20T04:35:41.062Z,37.70
2019-05-20T04:37:45.590Z,36.93
2019-05-20T04:39:50.418Z,37.33
2019-05-20T04:42:16.901Z,34.90
2019-05-20T04:44:22.093Z,37.77
2019-05-20T04:46:28.725Z,33.20
2019-05-20T04:48:34.418Z,41.60
2019-05-20T04:50:39.390Z,37.17
2019-05-20T04:52:46.135Z,45.27
2019-05-20T04:54:50.550Z,45.10
2019-05-20T04:56:58.592Z,40.47
2019-05-20T04:59:03.108Z,40.50
2019-05-20T05:01:07.582Z,37.77
2019-05-20T05:03:12.335Z,42.57
2019-05-20T05:05:17.899Z,33.83
2019-05-20T05:07:22.473Z,30.00
2019-05-20T05:09:26.990Z,38.33
2019-05-20T05:11:31.431Z,43.37
2019-05-20T05:13:35.892Z,39.27
2019-05-20T05:15:40.649Z,36.83
2019-05-20T05:17:45.111Z,41.60
2019-05-20T05:19:49.599Z,39.97
2019-05-20T05:21:54.014Z,41.93
2019-05-20T05:23:59.599Z,35.27
2019-05-20T05:26:04.300Z,33.60
2019-05-20T05:28:08.779Z,33.07
2019-05-20T05:30:13.501Z,39.67
2019-05-20T05:32:19.635Z,35.53
2019-05-20T05:34:24.073Z,40.90
2019-05-20T05:36:28.534Z,33.33
2019-05-20T05:38:32.937Z,41.40
2019-05-20T05:40:38.333Z,37.47
2019-05-20T05:42:45.399Z,32.13
2019-05-20T05:44:49.835Z,37.30
2019-05-20T05:46:54.198Z,35.30
2019-05-20T05:49:00.092Z,36.07
2019-05-20T05:51:05.005Z,39.53
2019-05-20T05:53:09.422Z,43.17
2019-05-20T05:55:13.988Z,38.87
2019-05-20T05:57:18.474Z,41.87
2019-05-20T05:59:23.146Z,38.87
2019-05-20T06:01:29.783Z,37.60
2019-05-20T06:03:34.514Z,40.43
2019-05-20T06:05:39.019Z,39.90
2019-05-20T06:07:43.814Z,35.70
2019-05-20T06:09:48.279Z,34.43
2019-05-20T06:11:52.724Z,31.20
2019-05-20T06:13:57.594Z,36.73
2019-05-20T06:16:01.928Z,41.20
2019-05-20T06:18:06.334Z,36.63
2019-05-20T06:20:11.909Z,33.43
2019-05-20T06:22:16.388Z,33.20
2019-05-20T06:24:20.860Z,32.70
2019-05-20T06:26:26.467Z,40.50
2019-05-20T06:28:31.377Z,37.30
2019-05-20T06:30:44.164Z,40.93
2019-05-20T06:32:49.252Z,43.10
2019-05-20T06:34:53.848Z,38.03
2019-05-20T06:37:00.739Z,42.03
2019-05-20T06:39:12.772Z,43.17
2019-05-20T06:41:17.173Z,45.40
2019-05-20T06:43:22.525Z,39.03
2019-05-20T06:45:26.955Z,43.83
2019-05-20T06:47:31.420Z,46.27
2019-05-20T06:49:36.199Z,44.53
2019-05-20T06:51:40.644Z,44.97
2019-05-20T06:53:45.020Z,55.80
2019-05-20T06:55:49.454Z,36.17
2019-05-20T06:57:53.867Z,37.63
2019-05-20T06:59:58.259Z,38.20
2019-05-20T07:02:03.418Z,49.70
2019-05-20T07:04:08.308Z,33.57
2019-05-20T07:06:15.089Z,39.90
2019-05-20T07:08:19.615Z,29.63
2019-05-20T07:10:24.119Z,31.60
2019-05-20T07:12:40.496Z,30.00
2019-05-20T07:14:34.565Z,33.27
2019-05-20T07:16:39.598Z,35.27
2019-05-20T07:18:44.066Z,37.30
2019-05-20T07:20:48.427Z,30.30
2019-05-20T07:22:56.204Z,34.80
2019-05-20T07:24:59.139Z,39.93
2019-05-20T07:27:03.904Z,33.70
2019-05-20T07:29:08.374Z,28.63
2019-05-20T07:31:13.118Z,28.57
2019-05-20T07:33:17.905Z,32.33
2019-05-20T07:35:30.268Z,39.37
2019-05-20T07:37:29.035Z,33.90
2019-05-20T07:39:34.309Z,32.80
2019-05-20T07:41:41.436Z,33.53
2019-05-20T07:43:44.900Z,30.70
2019-05-20T07:45:50.749Z,31.83
2019-05-20T07:47:56.047Z,29.03
2019-05-20T07:50:00.724Z,30.13
2019-05-20T07:52:06.051Z,32.47
2019-05-20T07:54:11.806Z,24.17
2019-05-20T07:56:20.075Z,27.83
2019-05-20T07:58:27.103Z,31.77
2019-05-20T08:00:32.946Z,32.80
2019-05-20T08:02:38.284Z,30.50
2019-05-20T08:04:44.173Z,28.93
2019-05-20T08:06:49.043Z,29.57
2019-05-20T08:08:53.480Z,28.30
2019-05-20T08:10:58.071Z,24.50
2019-05-20T08:13:02.530Z,31.30
2019-05-20T08:15:07.779Z,31.43
2019-05-20T08:17:12.678Z,25.60
2019-05-20T08:19:17.571Z,27.70
2019-05-20T08:21:22.164Z,28.87
2019-05-20T08:23:26.604Z,27.87
2019-05-20T08:25:31.102Z,27.87
2019-05-20T08:27:35.896Z,31.80
2019-05-20T08:29:40.376Z,30.70
2019-05-20T08:31:44.903Z,27.97
2019-05-20T08:33:49.410Z,28.77
2019-05-20T08:35:53.851Z,27.43
2019-05-20T08:37:58.389Z,31.07
2019-05-20T08:40:02.844Z,26.20
2019-05-20T08:42:09.327Z,28.37
2019-05-20T08:44:14.149Z,22.23
2019-05-20T08:46:20.887Z,26.70
2019-05-20T08:48:25.354Z,29.67
2019-05-20T08:50:29.959Z,31.80
2019-05-20T08:52:34.476Z,32.73
2019-05-20T08:54:40.476Z,31.60
2019-05-20T08:56:49.158Z,25.47
2019-05-20T08:58:51.764Z,28.70
2019-05-20T09:00:56.282Z,31.60
2019-05-20T09:03:03.834Z,30.37
2019-05-20T09:07:26.547Z,32.23
2019-05-20T09:09:31.210Z,35.63
2019-05-20T09:11:36.080Z,33.83
2019-05-20T09:13:41.373Z,29.10
2019-05-20T09:15:49.418Z,30.40
2019-05-20T09:17:53.921Z,32.27
2019-05-20T09:19:58.844Z,31.80
2019-05-20T09:22:03.325Z,29.07
2019-05-20T09:24:07.976Z,35.20
2019-05-20T09:26:12.439Z,26.13
2019-05-20T09:28:17.385Z,31.33
2019-05-20T09:30:22.687Z,30.23
2019-05-20T09:32:27.557Z,30.70
2019-05-20T09:34:32.475Z,24.53
2019-05-20T09:36:36.982Z,33.87
2019-05-20T09:38:42.032Z,31.50
2019-05-20T09:40:48.705Z,28.73
2019-05-20T09:42:55.018Z,29.77
2019-05-20T09:45:02.912Z,36.90
2019-05-20T09:47:06.666Z,34.17
2019-05-20T09:49:11.059Z,32.37
2019-05-20T09:51:16.436Z,38.23
2019-05-20T09:53:23.162Z,30.37
2019-05-20T09:55:27.821Z,37.43
2019-05-20T09:57:32.555Z,40.37
2019-05-20T09:59:43.499Z,34.43
2019-05-20T10:01:44.052Z,35.27
2019-05-20T10:03:48.614Z,41.50
2019-05-20T10:05:53.297Z,40.30
2019-05-20T10:07:58.417Z,37.63
2019-05-20T10:10:03.227Z,43.20
2019-05-20T10:12:07.770Z,45.63
2019-05-20T10:14:12.559Z,42.87
2019-05-20T10:16:17.225Z,37.17
2019-05-20T10:18:36.130Z,41.60
2019-05-20T10:20:27.895Z,38.80
2019-05-20T10:22:32.461Z,41.63
2019-05-20T10:24:37.931Z,48.37
2019-05-20T10:26:42.467Z,39.90
2019-05-20T10:28:47.778Z,54.00
2019-05-20T10:30:52.435Z,45.77
2019-05-20T10:32:56.996Z,45.43
2019-05-20T10:35:01.585Z,37.70
2019-05-20T10:37:06.199Z,41.63
2019-05-20T10:39:10.988Z,45.87
2019-05-20T10:41:15.439Z,46.40
2019-05-20T10:43:19.999Z,47.13
2019-05-20T10:45:24.471Z,45.90
2019-05-20T10:47:29.017Z,43.83
2019-05-20T10:49:34.851Z,40.50
2019-05-20T10:51:39.384Z,47.50
2019-05-20T10:53:43.803Z,48.27
2019-05-20T10:55:48.459Z,41.33
2019-05-20T10:57:53.866Z,43.23
2019-05-20T10:59:59.119Z,46.23
2019-05-20T11:02:03.601Z,43.00
2019-05-20T11:04:08.163Z,39.23
2019-05-20T11:06:13.019Z,50.53
2019-05-20T11:08:17.529Z,49.70
2019-05-20T11:10:22.073Z,54.37
2019-05-20T11:12:26.848Z,57.10
2019-05-20T11:14:31.380Z,62.87
2019-05-20T11:16:36.050Z,55.13
2019-05-20T11:18:40.639Z,51.90
2019-05-20T11:20:45.198Z,55.57
2019-05-20T11:22:49.697Z,57.90
2019-05-20T11:24:54.289Z,56.73
2019-05-20T11:26:58.689Z,47.97
2019-05-20T11:29:03.276Z,51.43
2019-05-20T11:31:08.184Z,49.47
2019-05-20T11:33:13.373Z,59.47
2019-05-20T11:35:18.029Z,55.40
2019-05-20T11:37:23.722Z,52.60
2019-05-20T11:39:33.111Z,55.00
2019-05-20T11:43:41.149Z,46.90
2019-05-20T11:45:46.064Z,47.10
2019-05-20T11:47:50.944Z,49.07
2019-05-20T11:49:56.029Z,43.73
2019-05-20T11:52:02.189Z,45.07
2019-05-20T11:54:06.731Z,46.60
2019-05-20T11:56:12.061Z,47.80
2019-05-20T11:58:16.928Z,57.27
2019-05-20T12:00:21.512Z,51.20
2019-05-20T12:02:25.989Z,51.50
2019-05-20T12:04:30.447Z,43.73
2019-05-20T12:06:34.903Z,55.17
2019-05-20T12:08:39.346Z,47.27
2019-05-20T12:10:43.867Z,56.00
2019-05-20T12:12:48.383Z,59.77
2019-05-20T12:14:52.934Z,57.90
2019-05-20T12:16:57.469Z,46.33
2019-05-20T12:19:02.358Z,56.93
2019-05-20T12:21:06.934Z,59.10
2019-05-20T12:23:11.578Z,51.57
2019-05-20T12:25:16.787Z,48.87
2019-05-20T12:27:21.230Z,60.60
2019-05-20T12:29:25.803Z,60.47
2019-05-20T12:31:30.227Z,46.57
2019-05-20T12:33:34.588Z,56.70
2019-05-20T12:35:39.073Z,46.83
2019-05-20T12:37:45.670Z,48.73
2019-05-20T12:40:05.844Z,46.87
2019-05-20T12:41:56.132Z,49.87
2019-05-20T12:44:11.522Z,45.93
2019-05-20T12:46:08.051Z,52.20
2019-05-20T12:48:13.768Z,49.07
2019-05-20T12:50:18.956Z,55.77
2019-05-20T12:52:23.615Z,51.60
2019-05-20T12:54:29.459Z,51.00
2019-05-20T12:56:33.903Z,58.47
2019-05-20T12:58:38.761Z,56.90
2019-05-20T13:00:43.812Z,48.60
2019-05-20T13:02:48.212Z,43.10
2019-05-20T13:04:52.586Z,57.20
2019-05-20T13:06:57.108Z,51.63
2019-05-20T13:09:01.579Z,49.43
2019-05-20T13:11:06.272Z,57.53
2019-05-20T13:13:11.112Z,55.87
2019-05-20T13:15:15.685Z,50.10
2019-05-20T13:17:20.519Z,56.47
2019-05-20T13:19:25.051Z,49.07
2019-05-20T13:21:29.462Z,66.03
2019-05-20T13:23:33.852Z,61.37
2019-05-20T13:25:38.981Z,60.43
2019-05-20T13:27:43.431Z,66.20
2019-05-20T13:29:47.914Z,64.93
2019-05-20T13:31:52.469Z,51.17
2019-05-20T13:33:56.906Z,52.50
2019-05-20T13:36:01.291Z,59.17
2019-05-20T13:38:06.256Z,47.17
2019-05-20T13:40:11.021Z,59.43
2019-05-20T13:42:15.519Z,50.23
2019-05-20T13:44:20.071Z,50.70
2019-05-20T13:46:25.040Z,48.83
2019-05-20T13:48:29.792Z,55.37
2019-05-20T13:50:34.311Z,51.97
2019-05-20T13:52:38.666Z,54.53
2019-05-20T13:54:43.151Z,59.53
2019-05-20T13:56:48.572Z,52.67
2019-05-20T13:58:53.049Z,53.13
2019-05-20T14:00:57.913Z,52.60
2019-05-20T14:03:02.500Z,58.07
2019-05-20T14:05:06.908Z,50.23
2019-05-20T14:07:11.420Z,48.37
2019-05-20T14:09:15.930Z,58.73
2019-05-20T14:11:33.812Z,48.67
2019-05-20T14:13:26.916Z,55.97
2019-05-20T14:15:31.423Z,62.00
2019-05-20T14:17:37.413Z,52.00
2019-05-20T14:19:41.946Z,55.00
2019-05-20T14:21:46.692Z,63.07
2019-05-20T14:23:51.204Z,54.50
2019-05-20T14:25:55.703Z,62.97
2019-05-20T14:28:00.276Z,59.77
2019-05-20T14:30:05.446Z,64.47
2019-05-20T14:32:09.917Z,64.80
2019-05-20T14:34:14.777Z,52.77
2019-05-20T14:36:38.615Z,62.37
2019-05-20T14:38:26.553Z,58.90
2019-05-20T14:40:31.076Z,65.87
2019-05-20T14:42:35.553Z,70.70
2019-05-20T14:44:40.789Z,72.40
2019-05-20T14:46:46.201Z,69.67
2019-05-20T14:48:50.648Z,62.53
2019-05-20T14:50:55.450Z,63.50
2019-05-20T14:53:00.092Z,40.73
2019-05-20T14:55:05.230Z,67.33
2019-05-20T14:57:09.730Z,70.63
2019-05-20T14:59:15.593Z,72.17
2019-05-20T15:01:20.063Z,61.57
2019-05-20T15:03:24.854Z,74.90
2019-05-20T15:05:29.599Z,71.23
2019-05-20T15:07:41.062Z,71.43
2019-05-20T15:09:46.254Z,61.70
2019-05-20T15:11:57.489Z,58.83
2019-05-20T15:14:01.931Z,65.63
2019-05-20T15:16:06.529Z,65.27
2019-05-20T15:18:11.091Z,61.53
2019-05-20T15:20:15.940Z,64.10
2019-05-20T15:22:20.430Z,67.73
2019-05-20T15:24:25.210Z,55.60
2019-05-20T15:26:29.676Z,60.17
2019-05-20T15:28:34.074Z,63.67
2019-05-20T15:30:38.604Z,62.97
2019-05-20T15:32:43.319Z,69.17
2019-05-20T15:34:49.836Z,53.60
2019-05-20T15:36:54.239Z,59.40
2019-05-20T15:38:58.635Z,53.63
2019-05-20T15:41:05.902Z,59.60
2019-05-20T15:43:10.518Z,57.17
2019-05-20T15:45:14.975Z,62.87
2019-05-20T15:47:19.461Z,57.47
2019-05-20T15:49:23.974Z,52.17
2019-05-20T15:51:28.455Z,58.50
2019-05-20T15:53:32.912Z,55.57
2019-05-20T15:55:38.023Z,55.47
2019-05-20T15:57:42.452Z,53.67
2019-05-20T15:59:46.952Z,52.93
2019-05-20T16:01:52.835Z,45.47
2019-05-20T16:03:57.724Z,50.40
2019-05-20T16:06:03.622Z,47.90
2019-05-20T16:08:08.620Z,55.40
2019-05-20T16:10:13.483Z,52.63
2019-05-20T16:12:18.020Z,47.67
2019-05-20T16:14:22.769Z,42.07
2019-05-20T16:16:27.620Z,49.40
2019-05-20T16:18:32.449Z,44.13
2019-05-20T16:20:36.976Z,52.73
2019-05-20T16:22:41.951Z,46.03
2019-05-20T16:24:46.417Z,48.93
2019-05-20T16:26:50.827Z,50.83
2019-05-20T16:28:55.203Z,49.83
2019-05-20T16:30:59.591Z,46.37
2019-05-20T16:33:04.217Z,49.97
2019-05-20T16:35:09.553Z,48.23
2019-05-20T16:37:14.142Z,49.20
2019-05-20T16:39:18.982Z,43.73
2019-05-20T16:41:23.793Z,43.83
2019-05-20T16:43:28.607Z,44.47
2019-05-20T16:45:33.254Z,49.70
2019-05-20T16:47:37.719Z,55.13
2019-05-20T16:49:42.428Z,50.60
2019-05-20T16:51:46.949Z,52.00
2019-05-20T16:53:52.622Z,49.13
2019-05-20T16:55:57.414Z,45.57
2019-05-20T16:58:05.191Z,46.20
2019-05-20T17:00:29.830Z,40.70
2019-05-20T17:02:16.635Z,42.37
2019-05-20T17:04:22.498Z,51.00
2019-05-20T17:06:27.644Z,42.47
2019-05-20T17:08:32.165Z,51.17
2019-05-20T17:10:37.087Z,51.43
2019-05-20T17:12:41.798Z,46.47
2019-05-20T17:14:49.435Z,47.73
2019-05-20T17:16:54.308Z,48.10
2019-05-20T17:19:00.442Z,46.33
2019-05-20T17:21:05.825Z,47.17
2019-05-20T17:23:10.590Z,47.10
2019-05-20T17:25:16.374Z,52.60
2019-05-20T17:27:21.356Z,44.03
2019-05-20T17:29:28.962Z,51.80
2019-05-20T17:31:33.527Z,52.40
2019-05-20T17:33:38.106Z,52.70
2019-05-20T17:35:42.750Z,45.67
2019-05-20T17:37:47.384Z,47.80
2019-05-20T17:39:52.000Z,41.57
2019-05-20T17:41:57.178Z,47.90
2019-05-20T17:44:01.669Z,44.60
2019-05-20T17:46:06.690Z,50.33
2019-05-20T17:48:11.670Z,43.03
2019-05-20T17:50:16.847Z,46.20
2019-05-20T17:52:21.586Z,45.07
2019-05-20T17:54:26.523Z,43.40
2019-05-20T17:56:31.207Z,45.30
2019-05-20T17:58:37.406Z,47.53
2019-05-20T18:00:42.379Z,41.00
2019-05-20T18:02:46.911Z,45.10
2019-05-20T18:04:51.431Z,40.10
2019-05-20T18:06:58.451Z,43.20
2019-05-20T18:09:04.063Z,47.73
2019-05-20T18:11:08.681Z,38.77
2019-05-20T18:13:13.200Z,39.37
2019-05-20T18:15:19.833Z,36.43
2019-05-20T18:17:24.372Z,39.33
2019-05-20T18:19:30.075Z,44.93
2019-05-20T18:21:34.700Z,38.70
2019-05-20T18:23:39.517Z,38.43
2019-05-20T18:25:44.553Z,42.73
2019-05-20T18:27:49.195Z,39.43
2019-05-20T18:29:55.277Z,38.60
2019-05-20T18:31:59.975Z,37.13
2019-05-20T18:34:04.654Z,35.37
2019-05-20T18:36:09.217Z,38.30
2019-05-20T18:38:13.997Z,43.77
2019-05-20T18:40:18.790Z,30.00
2019-05-20T18:42:23.518Z,41.43
2019-05-20T18:44:28.052Z,35.97
2019-05-20T18:46:33.289Z,35.10
2019-05-20T18:48:38.161Z,42.00
2019-05-20T18:50:43.411Z,35.67
2019-05-20T18:52:48.226Z,32.27
2019-05-20T18:54:52.881Z,43.87
2019-05-20T18:56:58.011Z,43.57
2019-05-20T18:59:02.914Z,31.70
2019-05-20T19:01:07.918Z,31.60
2019-05-20T19:03:12.665Z,39.70
2019-05-20T19:05:17.512Z,39.50
2019-05-20T19:07:22.304Z,38.10
2019-05-20T19:09:27.935Z,45.83
2019-05-20T19:11:32.663Z,37.07
2019-05-20T19:13:37.248Z,40.70
2019-05-20T19:15:43.473Z,45.30
2019-05-20T19:17:48.909Z,36.80
2019-05-20T19:19:53.420Z,40.30
2019-05-20T19:21:59.385Z,43.30
2019-05-20T19:24:05.035Z,32.33
2019-05-20T19:26:23.997Z,47.17
2019-05-20T19:28:17.236Z,41.10
2019-05-20T19:30:22.238Z,44.00
2019-05-20T19:32:27.909Z,40.33
2019-05-20T19:34:34.629Z,48.57
2019-05-20T19:36:40.073Z,41.57
2019-05-20T19:38:46.330Z,44.30
2019-05-20T19:40:54.920Z,44.10
2019-05-20T19:43:00.111Z,48.27
2019-05-20T19:45:05.036Z,46.43
2019-05-20T19:47:10.875Z,46.47
2019-05-20T19:49:15.611Z,42.13
2019-05-20T19:51:20.746Z,51.53
2019-05-20T19:53:27.502Z,46.40
2019-05-20T19:55:34.968Z,40.23
2019-05-20T19:57:40.373Z,48.47
2019-05-20T19:59:45.643Z,54.80
2019-05-20T20:01:50.768Z,45.40
2019-05-20T20:03:55.745Z,47.10
2019-05-20T20:06:00.402Z,46.53
2019-05-20T20:08:05.100Z,45.90
2019-05-20T20:10:11.832Z,45.93
2019-05-20T20:12:16.801Z,46.57
2019-05-20T20:14:22.559Z,54.30
2019-05-20T20:16:28.095Z,41.97
2019-05-20T20:18:33.532Z,47.47
2019-05-20T20:20:38.290Z,49.27
2019-05-20T20:22:44.361Z,46.90
2019-05-20T20:24:50.653Z,45.80
2019-05-20T20:26:55.157Z,49.87
2019-05-20T20:29:05.775Z,44.60
2019-05-20T20:31:11.191Z,43.40
2019-05-20T20:33:15.948Z,46.90
2019-05-20T20:35:21.245Z,54.30
2019-05-20T20:37:25.799Z,50.80
2019-05-20T20:39:34.317Z,46.30
2019-05-20T20:41:37.579Z,45.40
2019-05-20T20:43:42.468Z,50.23
2019-05-20T20:45:46.966Z,57.03
2019-05-20T20:47:51.426Z,50.43
2019-05-20T20:49:55.965Z,47.73
2019-05-20T20:52:00.499Z,56.57
2019-05-20T20:54:07.824Z,60.30
2019-05-20T20:56:24.679Z,44.67
2019-05-20T20:58:18.948Z,60.13
2019-05-20T21:00:23.521Z,63.13
2019-05-20T21:02:27.910Z,53.33
2019-05-20T21:04:32.542Z,60.50
2019-05-20T21:06:39.969Z,58.13
2019-05-20T21:08:44.389Z,58.40
2019-05-20T21:10:48.943Z,56.03
2019-05-20T21:12:54.427Z,55.13
2019-05-20T21:14:58.856Z,54.77
2019-05-20T21:17:03.582Z,58.47
2019-05-20T21:19:08.941Z,59.47
2019-05-20T21:21:13.794Z,60.20
2019-05-20T21:23:18.513Z,59.77
2019-05-20T21:25:23.026Z,59.00
2019-05-20T21:27:27.606Z,61.73
2019-05-20T21:29:33.008Z,54.73
2019-05-20T21:31:37.438Z,67.70
2019-05-20T21:33:42.021Z,49.53
2019-05-20T21:35:46.449Z,56.53
2019-05-20T21:37:51.412Z,53.40
2019-05-20T21:39:55.885Z,46.70
2019-05-20T21:42:00.399Z,52.93
2019-05-20T21:44:04.851Z,49.83
2019-05-20T21:46:09.231Z,53.33
2019-05-20T21:48:13.658Z,46.20
2019-05-20T21:50:18.199Z,45.00
2019-05-20T21:52:23.395Z,39.20
2019-05-20T21:54:27.929Z,32.40
2019-05-20T21:56:32.453Z,42.97
2019-05-20T21:58:36.916Z,35.30
2019-05-20T22:00:47.688Z,48.37
2019-05-20T22:02:54.573Z,39.67
2019-05-20T22:04:58.990Z,43.10
2019-05-20T22:07:03.365Z,38.33
2019-05-20T22:09:07.971Z,49.73
2019-05-20T22:11:12.426Z,59.10
2019-05-20T22:13:16.958Z,53.17
2019-05-20T22:15:22.375Z,60.10
2019-05-20T22:17:26.782Z,56.30
2019-05-20T22:19:31.227Z,51.50
2019-05-20T22:21:51.111Z,52.00
2019-05-20T22:23:58.416Z,62.10
2019-05-20T22:26:03.044Z,53.80
2019-05-20T22:28:07.559Z,40.70
2019-05-20T22:30:12.352Z,59.53
2019-05-20T22:32:17.363Z,56.97
2019-05-20T22:34:22.189Z,54.50
2019-05-20T22:36:26.668Z,56.20
2019-05-20T22:38:31.068Z,57.07
2019-05-20T22:40:35.419Z,56.37
2019-05-20T22:42:39.810Z,60.67
2019-05-20T22:44:44.251Z,72.53
2019-05-20T22:46:48.671Z,71.47
2019-05-20T22:48:53.395Z,67.90
2019-05-20T22:50:58.166Z,61.93
2019-05-20T22:53:02.552Z,61.63
2019-05-20T22:55:07.139Z,62.37
2019-05-20T22:57:13.074Z,59.70
2019-05-20T22:59:17.827Z,59.27
2019-05-20T23:01:22.392Z,64.33
2019-05-20T23:03:27.207Z,65.27
2019-05-20T23:05:32.419Z,60.53
2019-05-20T23:07:36.953Z,51.03
2019-05-20T23:09:41.306Z,63.97
2019-05-20T23:11:45.720Z,75.53
2019-05-20T23:13:50.195Z,55.37
2019-05-20T23:15:55.950Z,55.13
2019-05-20T23:18:00.362Z,57.30
2019-05-20T23:20:05.004Z,47.77
2019-05-20T23:22:09.746Z,53.30
2019-05-20T23:24:14.284Z,38.50
2019-05-20T23:26:18.747Z,50.47
2019-05-20T23:28:23.103Z,47.50
2019-05-20T23:30:27.480Z,47.27
2019-05-20T23:32:32.103Z,52.70
2019-05-20T23:34:36.585Z,39.70
2019-05-20T23:36:40.993Z,50.00
2019-05-20T23:38:45.725Z,45.33
2019-05-20T23:40:50.075Z,53.57
2019-05-20T23:42:54.390Z,41.77
2019-05-20T23:44:58.910Z,45.87
2019-05-20T23:47:03.331Z,41.80
2019-05-20T23:49:07.763Z,43.03
2019-05-20T23:51:12.528Z,27.27
2019-05-20T23:53:19.979Z,28.10
2019-05-20T23:55:24.557Z,29.33
2019-05-20T23:57:29.171Z,29.53
2019-05-20T23:59:33.838Z,31.83
